Time;durP1;ratioP1;P1;durP2;ratioP2;P2;SDS_P1;SDS_P2;PMS_P1;PMS_P2;Temp;Humidity;BMP_temperature;BMP_pressure;BME280_temperature;BME280_humidity;BME280_pressure;Samples;Min_cycle;Max_cycle;Signal;HPM_P1;HPM_P2
2021/03/15 00:02:34;;;;;;;27.80;15.33;;;;;;;1.66;73.04;98112.56;2150653;83;21104;-77
2021/03/15 00:05:35;;;;;;;27.13;15.80;;;;;;;1.67;73.61;98114.72;2152467;83;22010;-77
2021/03/15 00:08:36;;;;;;;32.77;16.43;;;;;;;1.65;73.45;98122.38;2155102;82;21111;-78
2021/03/15 00:11:38;;;;;;;24.37;15.07;;;;;;;1.58;73.32;98116.15;2156182;82;21154;-77
2021/03/15 00:14:39;;;;;;;25.13;14.93;;;;;;;1.52;73.23;98120.20;2166101;82;21182;-78
2021/03/15 00:17:41;;;;;;;25.07;15.40;;;;;;;1.46;73.34;98120.86;2172757;82;21245;-77
2021/03/15 00:20:43;;;;;;;24.93;14.37;;;;;;;1.41;73.37;98126.66;2160878;82;21135;-77
2021/03/15 00:23:45;;;;;;;28.17;15.63;;;;;;;1.36;73.38;98128.19;2160743;82;21126;-78
2021/03/15 00:26:46;;;;;;;29.30;15.03;;;;;;;1.34;73.90;98128.13;2161289;82;21242;-78
2021/03/15 00:29:47;;;;;;;39.30;16.97;;;;;;;1.34;74.10;98134.97;2162384;82;21254;-78
2021/03/15 00:32:53;;;;;;;35.43;16.77;;;;;;;1.32;74.25;98135.33;2162431;82;21499;-77
2021/03/15 00:35:54;;;;;;;31.20;16.67;;;;;;;1.32;74.19;98127.61;2162947;82;21138;-77
2021/03/15 00:38:55;;;;;;;36.90;17.50;;;;;;;1.30;74.21;98133.11;2162307;82;21241;-78
2021/03/15 00:41:56;;;;;;;31.33;17.63;;;;;;;1.28;74.35;98130.07;2162521;82;21245;-77
2021/03/15 00:44:57;;;;;;;27.33;15.53;;;;;;;1.28;74.58;98131.36;2162267;82;21154;-77
2021/03/15 00:48:01;;;;;;;33.33;18.23;;;;;;;1.26;74.68;98133.41;2162419;82;21155;-78
2021/03/15 00:51:03;;;;;;;31.73;18.53;;;;;;;1.23;74.64;98134.17;2162721;82;21270;-78
2021/03/15 00:54:04;;;;;;;28.80;17.00;;;;;;;1.25;74.74;98131.66;2162605;82;21234;-78
2021/03/15 00:57:09;;;;;;;32.40;18.30;;;;;;;1.31;74.75;98125.45;2162788;82;21238;-78
2021/03/15 01:00:10;;;;;;;;;;;;;;;1.36;74.82;98114.05;2165500;82;21102;-79
2021/03/15 01:03:11;;;;;;;32.90;18.03;;;;;;;1.46;74.99;98116.13;2162656;82;20171;-79
2021/03/15 01:06:12;;;;;;;32.20;17.57;;;;;;;1.52;74.86;98114.64;2162638;82;21162;-78
2021/03/15 01:09:15;;;;;;;31.20;17.57;;;;;;;1.56;74.89;98102.77;2162726;82;21373;-79
2021/03/15 01:12:16;;;;;;;31.83;18.90;;;;;;;1.61;74.97;98102.52;2162629;82;21261;-79
2021/03/15 01:15:17;;;;;;;30.10;16.97;;;;;;;1.66;74.94;98098.81;2153092;82;21142;-79
2021/03/15 01:18:18;;;;;;;48.60;27.27;;;;;;;1.69;75.03;98095.94;2152164;83;21127;-79
2021/03/15 01:21:19;;;;;;;34.67;20.03;;;;;;;1.68;74.80;98092.91;2152340;83;21396;-78
2021/03/15 01:24:20;;;;;;;34.83;19.47;;;;;;;1.69;74.84;98089.51;2152556;83;21119;-78
2021/03/15 01:27:21;;;;;;;30.53;18.80;;;;;;;1.68;74.83;98089.45;2152499;83;21147;-78
2021/03/15 01:30:28;;;;;;;31.77;18.70;;;;;;;1.66;74.54;98090.69;2152809;83;21104;-79
2021/03/15 01:33:29;;;;;;;29.87;17.40;;;;;;;1.65;74.56;98094.09;2153076;83;21107;-79
2021/03/15 01:36:35;;;;;;;30.13;17.93;;;;;;;1.71;74.50;98098.16;2152597;83;21150;-79
2021/03/15 01:39:36;;;;;;;32.40;18.77;;;;;;;1.70;74.32;98097.69;2152296;83;21114;-79
2021/03/15 01:42:37;;;;;;;30.27;18.27;;;;;;;1.67;74.46;98089.87;2152643;83;21155;-79
2021/03/15 01:45:39;;;;;;;37.37;19.37;;;;;;;1.65;74.69;98083.80;2152815;83;21139;-79
2021/03/15 01:48:40;;;;;;;30.90;19.50;;;;;;;1.57;74.11;98089.96;2153093;82;21229;-79
2021/03/15 01:51:41;;;;;;;29.57;17.17;;;;;;;1.50;74.05;98082.85;2152699;83;21269;-79
2021/03/15 01:54:46;;;;;;;29.20;16.50;;;;;;;1.40;73.53;98083.77;2152924;82;21132;-79
2021/03/15 01:57:47;;;;;;;;;;;;;;;1.24;73.56;98078.08;2155349;83;21087;-80
2021/03/15 02:00:54;;;;;;;27.70;15.73;;;;;;;1.06;73.36;98079.98;2152825;83;20139;-79
2021/03/15 02:03:55;;;;;;;27.10;15.60;;;;;;;0.90;73.42;98077.26;2153221;83;21373;-78
2021/03/15 02:06:56;;;;;;;24.63;15.03;;;;;;;0.76;73.58;98079.69;2165318;82;21147;-79
2021/03/15 02:09:58;;;;;;;25.40;15.00;;;;;;;0.68;73.66;98076.36;2166391;82;21075;-79
2021/03/15 02:12:59;;;;;;;24.77;15.17;;;;;;;0.57;73.20;98071.69;2162921;82;21281;-79
2021/03/15 02:16:00;;;;;;;25.07;14.13;;;;;;;0.46;73.26;98085.81;2162668;82;21134;-79
2021/03/15 02:19:01;;;;;;;27.97;15.30;;;;;;;0.37;73.18;98077.75;2162989;82;21148;-79
2021/03/15 02:22:05;;;;;;;29.33;15.40;;;;;;;0.27;73.30;98085.50;2162875;82;21120;-79
2021/03/15 02:25:06;;;;;;;26.47;15.33;;;;;;;0.22;73.50;98079.71;2162730;82;21111;-79
2021/03/15 02:28:07;;;;;;;23.80;14.87;;;;;;;0.23;73.96;98078.48;2163033;82;21264;-80
2021/03/15 02:31:08;;;;;;;24.67;14.00;;;;;;;0.24;74.10;98076.80;2162856;82;21146;-79
2021/03/15 02:34:09;;;;;;;22.17;13.70;;;;;;;0.25;74.26;98079.83;2162893;82;21225;-79
2021/03/15 02:37:10;;;;;;;25.53;14.83;;;;;;;0.26;74.34;98084.15;2162783;82;21083;-79
2021/03/15 02:40:11;;;;;;;32.40;16.03;;;;;;;0.27;74.53;98079.48;2162585;82;21522;-79
2021/03/15 02:43:15;;;;;;;27.63;15.60;;;;;;;0.29;74.67;98086.44;2163006;82;21241;-79
2021/03/15 02:46:16;;;;;;;23.97;15.17;;;;;;;0.34;74.62;98090.88;2162656;82;21284;-79
2021/03/15 02:49:23;;;;;;;24.67;15.03;;;;;;;0.43;74.65;98092.11;2163113;82;21415;-79
2021/03/15 02:52:26;;;;;;;24.40;14.90;;;;;;;0.52;74.89;98095.44;2163173;82;21150;-79
2021/03/15 02:55:27;;;;;;;22.67;14.70;;;;;;;0.64;74.82;98095.51;2162847;82;21115;-80
2021/03/15 02:58:28;;;;;;;38.97;15.53;;;;;;;0.77;74.49;98095.56;2163072;82;21118;-80
2021/03/15 03:01:31;;;;;;;25.63;16.53;;;;;;;0.93;74.79;98088.06;2162939;82;21134;-80
2021/03/15 03:04:32;;;;;;;25.23;15.57;;;;;;;1.06;74.46;98094.53;2162912;82;21244;-79
2021/03/15 03:07:33;;;;;;;27.57;15.80;;;;;;;1.17;74.21;98094.51;2154462;81;21428;-79
2021/03/15 03:10:34;;;;;;;45.40;16.20;;;;;;;1.28;74.37;98097.05;2152611;83;21119;-80
2021/03/15 03:13:36;;;;;;;24.73;16.43;;;;;;;1.41;74.33;98094.52;2152741;82;21083;-79
2021/03/15 03:16:38;;;;;;;60.93;18.07;;;;;;;1.51;74.36;98091.45;2152967;83;21261;-80
2021/03/15 03:19:39;;;;;;;24.37;15.20;;;;;;;1.59;74.41;98093.88;2152857;82;21201;-80
2021/03/15 03:22:40;;;;;;;22.17;14.47;;;;;;;1.68;74.33;98098.05;2153111;83;21127;-78
2021/03/15 03:25:43;;;;;;;21.53;15.10;;;;;;;1.72;74.32;98098.62;2154162;83;21115;-78
2021/03/15 03:28:44;;;;;;;30.83;19.50;;;;;;;1.80;74.57;98103.65;2152681;83;21388;-78
2021/03/15 03:31:45;;;;;;;23.70;16.47;;;;;;;1.90;74.72;98108.70;2152239;83;21424;-78
2021/03/15 03:34:46;;;;;;;23.53;16.63;;;;;;;2.00;74.73;98097.88;2152525;83;21169;-78
2021/03/15 03:37:47;;;;;;;24.27;16.73;;;;;;;2.11;74.62;98096.95;2152233;83;21115;-78
2021/03/15 03:40:48;;;;;;;26.33;16.97;;;;;;;2.12;74.42;98093.14;2152048;83;21119;-78
2021/03/15 03:43:49;;;;;;;25.67;16.57;;;;;;;2.07;74.25;98092.53;2152303;83;21111;-78
2021/03/15 03:46:51;;;;;;;24.80;16.70;;;;;;;2.02;74.16;98106.53;2152307;83;21257;-78
2021/03/15 03:49:52;;;;;;;22.47;15.50;;;;;;;1.98;74.18;98111.53;2152172;83;21205;-79
2021/03/15 03:52:53;;;;;;;22.20;15.77;;;;;;;1.93;74.16;98105.34;2153055;83;21395;-79
2021/03/15 03:55:54;;;;;;;27.27;15.60;;;;;;;1.84;74.03;98108.08;2152953;83;21127;-79
2021/03/15 03:58:55;;;;;;;21.37;15.67;;;;;;;1.76;73.83;98113.78;2152814;83;21214;-78
2021/03/15 04:01:56;;;;;;;21.47;14.80;;;;;;;1.71;73.83;98121.31;2152768;83;21222;-79
2021/03/15 04:04:57;;;;;;;22.80;15.67;;;;;;;1.68;73.86;98121.20;2152777;83;21385;-79
2021/03/15 04:07:58;;;;;;;20.23;15.27;;;;;;;1.68;73.89;98119.92;2152932;83;21138;-79
2021/03/15 04:10:59;;;;;;;24.17;15.77;;;;;;;1.67;73.88;98119.86;2152309;83;21277;-79
2021/03/15 04:14:00;;;;;;;27.73;16.23;;;;;;;1.67;73.90;98125.89;2151619;83;21130;-79
2021/03/15 04:17:01;;;;;;;24.97;15.40;;;;;;;1.66;73.74;98122.84;2151320;83;21456;-79
2021/03/15 04:20:03;;;;;;;26.27;16.37;;;;;;;1.61;73.70;98121.81;2151404;83;21123;-79
2021/03/15 04:23:05;;;;;;;27.13;15.60;;;;;;;1.53;73.49;98129.67;2151752;82;21432;-80
2021/03/15 04:26:06;;;;;;;26.43;17.33;;;;;;;1.42;73.68;98129.28;2151154;83;21095;-79
2021/03/15 04:29:07;;;;;;;28.70;17.23;;;;;;;1.33;73.73;98134.09;2151108;83;21130;-79
2021/03/15 04:32:08;;;;;;;29.07;16.87;;;;;;;1.26;73.85;98137.27;2150049;83;21170;-79
2021/03/15 04:35:09;;;;;;;24.00;16.67;;;;;;;1.19;73.77;98134.88;2151157;83;21377;-79
2021/03/15 04:38:10;;;;;;;27.53;17.60;;;;;;;1.11;73.83;98141.84;2150226;83;22118;-79
2021/03/15 04:41:11;;;;;;;28.57;17.47;;;;;;;1.05;74.16;98139.91;2149265;83;21158;-79
2021/03/15 04:44:12;;;;;;;39.90;15.90;;;;;;;1.05;74.16;98139.91;2148618;83;21143;-79
2021/03/15 04:47:13;;;;;;;34.93;17.77;;;;;;;1.04;74.25;98138.16;2148164;83;21507;-79
2021/03/15 04:50:14;;;;;;;27.10;17.87;;;;;;;1.05;74.24;98136.06;2147345;83;21285;-79
2021/03/15 04:53:15;;;;;;;30.83;17.97;;;;;;;1.03;74.12;98135.13;2147290;83;21336;-80
2021/03/15 04:56:16;;;;;;;28.53;17.30;;;;;;;1.00;73.83;98131.16;2147887;83;21134;-79
2021/03/15 04:59:17;;;;;;;29.50;16.53;;;;;;;0.93;73.92;98138.16;2147390;82;21285;-79
2021/03/15 05:02:18;;;;;;;28.53;16.70;;;;;;;0.95;73.97;98139.98;2146656;83;21127;-80
2021/03/15 05:05:21;;;;;;;22.90;16.17;;;;;;;0.99;73.99;98142.25;2146506;83;21757;-79
2021/03/15 05:08:22;;;;;;;23.53;15.90;;;;;;;1.05;73.88;98141.61;2147544;83;22154;-79
2021/03/15 05:11:23;;;;;;;26.90;18.57;;;;;;;1.07;73.89;98134.42;2147462;82;21620;-80
2021/03/15 05:14:24;;;;;;;31.13;15.90;;;;;;;1.11;74.03;98128.58;2147173;83;21414;-77
2021/03/15 05:17:25;;;;;;;21.67;15.47;;;;;;;1.18;73.99;98129.68;2146648;83;21147;-79
2021/03/15 05:20:26;;;;;;;36.77;17.20;;;;;;;1.20;73.81;98135.34;2146406;83;21250;-79
2021/03/15 05:23:27;;;;;;;24.00;15.93;;;;;;;1.25;73.81;98131.66;2146717;83;21155;-78
2021/03/15 05:26:28;;;;;;;25.97;15.47;;;;;;;1.27;73.58;98137.32;2145570;83;21606;-78
2021/03/15 05:29:29;;;;;;;29.40;16.93;;;;;;;1.33;73.70;98133.22;2146194;82;22008;-76
2021/03/15 05:32:30;;;;;;;63.33;18.97;;;;;;;1.39;73.79;98130.87;2146808;83;21381;-77
2021/03/15 05:35:32;;;;;;;39.17;18.37;;;;;;;1.51;74.03;98127.05;2148070;83;21122;-78
2021/03/15 05:38:33;;;;;;;45.43;18.70;;;;;;;1.66;73.99;98127.99;2146692;83;21134;-78
2021/03/15 05:41:35;;;;;;;33.47;18.90;;;;;;;1.79;73.86;98125.05;2146241;82;21281;-77
2021/03/15 05:44:36;;;;;;;34.10;19.60;;;;;;;1.96;73.82;98128.62;2146865;83;21167;-78
2021/03/15 05:47:37;;;;;;;44.20;22.67;;;;;;;2.07;73.67;98125.99;2145377;83;21305;-77
2021/03/15 05:50:38;;;;;;;54.47;23.57;;;;;;;2.17;73.65;98126.34;2145257;83;21143;-79
2021/03/15 05:53:39;;;;;;;56.77;23.73;;;;;;;2.28;73.60;98121.55;2145445;83;21317;-78
2021/03/15 05:56:40;;;;;;;43.47;23.27;;;;;;;2.37;73.57;98127.00;2144726;83;21166;-77
2021/03/15 05:59:41;;;;;;;50.67;23.80;;;;;;;2.47;73.54;98129.05;2143506;82;21281;-78
2021/03/15 06:02:42;;;;;;;38.57;22.73;;;;;;;2.61;73.39;98129.92;2143745;83;21159;-77
2021/03/15 06:05:44;;;;;;;43.93;23.73;;;;;;;2.70;73.30;98128.52;2143966;83;21253;-76
2021/03/15 06:08:45;;;;;;;41.37;22.83;;;;;;;2.77;73.25;98133.03;2144709;83;21289;-77
2021/03/15 06:11:46;;;;;;;40.47;22.50;;;;;;;2.85;73.24;98134.55;2144177;83;21163;-78
2021/03/15 06:14:48;;;;;;;44.27;23.90;;;;;;;2.93;73.15;98130.92;2145488;82;21131;-77
2021/03/15 06:17:49;;;;;;;45.37;22.67;;;;;;;3.01;73.12;98133.31;2144089;83;21484;-77
2021/03/15 06:20:50;;;;;;;57.30;23.33;;;;;;;3.09;72.98;98133.13;2144678;83;21642;-77
2021/03/15 06:23:51;;;;;;;86.00;40.27;;;;;;;3.16;72.90;98138.51;2145167;83;21147;-77
2021/03/15 06:26:52;;;;;;;91.90;39.87;;;;;;;3.28;72.86;98136.70;2145180;83;21502;-77
2021/03/15 06:29:53;;;;;;;71.60;33.67;;;;;;;3.39;72.65;98134.43;2144996;83;21254;-77
2021/03/15 06:32:55;;;;;;;79.87;39.67;;;;;;;3.52;72.59;98139.14;2144176;83;21814;-77
2021/03/15 06:35:58;;;;;;;246.83;47.00;;;;;;;3.65;72.24;98131.32;2145074;82;21135;-77
2021/03/15 06:38:59;;;;;;;77.63;39.40;;;;;;;3.79;72.21;98132.16;2145425;83;21546;-77
2021/03/15 06:42:00;;;;;;;93.97;37.87;;;;;;;3.94;72.07;98132.98;2145387;83;21280;-81
2021/03/15 06:45:01;;;;;;;113.17;38.40;;;;;;;4.13;73.43;98131.74;2148569;83;21257;-75
2021/03/15 06:48:02;;;;;;;166.77;41.23;;;;;;;5.19;72.04;98132.13;2146719;83;21310;-77
2021/03/15 06:51:03;;;;;;;38.37;21.90;;;;;;;5.25;70.40;98127.55;2145261;83;21302;-76
2021/03/15 06:54:04;;;;;;;32.27;16.57;;;;;;;5.24;69.57;98125.80;2145037;83;22064;-76
2021/03/15 06:57:07;;;;;;;33.10;16.07;;;;;;;5.20;69.23;98120.98;2145474;83;21298;-77
2021/03/15 07:00:08;;;;;;;21.37;15.63;;;;;;;5.23;68.87;98127.52;2144525;83;21562;-77
2021/03/15 07:03:09;;;;;;;27.47;16.80;;;;;;;5.17;68.74;98127.34;2145083;83;21265;-77
2021/03/15 07:06:11;;;;;;;34.03;19.03;;;;;;;5.17;68.70;98139.41;2145069;82;21163;-76
2021/03/15 07:09:12;;;;;;;39.87;25.20;;;;;;;5.14;68.86;98144.09;2149429;82;21335;-77
2021/03/15 07:12:13;;;;;;;41.83;25.37;;;;;;;5.19;68.71;98141.61;2169504;81;21316;-77
2021/03/15 07:15:14;;;;;;;47.60;26.50;;;;;;;5.28;68.55;98143.13;2164494;82;21126;-77
2021/03/15 07:18:15;;;;;;;48.67;26.30;;;;;;;5.32;68.50;98146.24;2155287;82;21253;-77
2021/03/15 07:21:18;;;;;;;59.73;30.47;;;;;;;5.42;68.47;98147.76;2156051;82;21224;-78
2021/03/15 07:24:19;;;;;;;36.50;22.37;;;;;;;5.53;68.06;98142.80;2156574;82;21265;-77
2021/03/15 07:27:20;;;;;;;31.10;20.13;;;;;;;5.65;67.87;98145.64;2156380;82;21131;-76
2021/03/15 07:30:21;;;;;;;30.83;18.50;;;;;;;5.73;67.61;98142.78;2156462;82;21427;-76
2021/03/15 07:33:24;;;;;;;65.03;20.27;;;;;;;5.74;67.54;98140.64;2157063;82;21304;-75
2021/03/15 07:36:25;;;;;;;32.10;20.17;;;;;;;5.80;67.49;98145.06;2156963;82;21419;-76
2021/03/15 07:39:28;;;;;;;33.37;22.10;;;;;;;5.78;66.95;98145.88;2155988;82;21292;-79
2021/03/15 07:42:30;;;;;;;34.93;21.40;;;;;;;5.74;67.00;98143.23;2157756;82;21285;-77
2021/03/15 07:45:31;;;;;;;33.23;22.47;;;;;;;5.89;66.77;98147.86;2157561;82;21095;-77
2021/03/15 07:48:32;;;;;;;37.50;25.30;;;;;;;6.01;65.99;98151.98;2158182;82;21724;-78
2021/03/15 07:51:34;;;;;;;32.40;22.20;;;;;;;6.10;65.54;98154.33;2156513;82;22152;-77
2021/03/15 07:54:35;;;;;;;37.77;23.37;;;;;;;6.18;66.15;98152.32;2156286;82;21272;-78
2021/03/15 07:57:36;;;;;;;38.17;24.37;;;;;;;6.35;65.66;98147.02;2156127;82;21420;-78
2021/03/15 08:00:37;;;;;;;44.50;26.50;;;;;;;6.47;65.25;98149.36;2156595;82;21510;-77
2021/03/15 08:03:39;;;;;;;30.27;19.33;;;;;;;6.44;65.23;98144.13;2155998;82;22090;-77
2021/03/15 08:06:40;;;;;;;29.53;19.10;;;;;;;6.43;64.54;98151.03;2157736;82;21464;-77
2021/03/15 08:09:41;;;;;;;33.30;20.50;;;;;;;6.40;64.52;98148.39;2166627;82;21269;-77
2021/03/15 08:12:43;;;;;;;30.83;19.57;;;;;;;6.31;64.39;98146.51;2166260;82;21669;-78
2021/03/15 08:15:45;;;;;;;31.17;19.20;;;;;;;6.45;63.86;98148.46;2159749;81;21428;-77
2021/03/15 08:18:46;;;;;;;28.03;20.13;;;;;;;6.54;64.55;98143.43;2156947;82;21285;-78
2021/03/15 08:21:47;;;;;;;63.83;21.80;;;;;;;6.68;63.94;98144.52;2157146;82;21257;-78
2021/03/15 08:24:48;;;;;;;28.27;20.70;;;;;;;6.95;63.46;98147.58;2156623;82;21272;-77
2021/03/15 08:27:50;;;;;;;30.20;20.33;;;;;;;7.15;63.12;98144.40;2156461;82;21566;-77
2021/03/15 08:30:51;;;;;;;29.90;21.00;;;;;;;7.40;62.47;98140.41;2157850;82;21281;-76
2021/03/15 08:33:52;;;;;;;178.17;29.67;;;;;;;7.61;62.49;98139.38;2157133;82;22059;-76
2021/03/15 08:36:53;;;;;;;34.63;22.07;;;;;;;7.97;62.14;98136.36;2156706;82;21288;-77
2021/03/15 08:39:54;;;;;;;35.50;21.47;;;;;;;8.20;60.67;98135.30;2155967;82;21581;-76
2021/03/15 08:42:56;;;;;;;34.63;20.57;;;;;;;8.36;60.73;98136.35;2156338;82;21166;-76
2021/03/15 08:45:57;;;;;;;27.20;17.33;;;;;;;8.52;59.98;98131.73;2156181;82;22297;-76
2021/03/15 08:48:58;;;;;;;27.93;16.37;;;;;;;8.74;59.02;98138.88;2157109;82;21301;-76
2021/03/15 08:51:59;;;;;;;20.60;15.67;;;;;;;8.74;58.76;98138.88;2156234;82;22050;-77
2021/03/15 08:55:00;;;;;;;60.23;16.73;;;;;;;8.63;58.22;98136.16;2156706;82;21284;-78
2021/03/15 08:58:01;;;;;;;24.13;16.23;;;;;;;8.76;58.62;98132.39;2157418;82;21281;-75
2021/03/15 09:01:03;;;;;;;26.10;13.83;;;;;;;8.91;58.38;98129.90;2155907;82;22074;-77
2021/03/15 09:04:04;;;;;;;16.67;12.73;;;;;;;9.01;58.31;98129.09;2154997;82;21273;-76
2021/03/15 09:07:05;;;;;;;20.00;13.23;;;;;;;9.22;57.67;98124.45;2156910;82;21332;-77
2021/03/15 09:10:06;;;;;;;24.23;15.80;;;;;;;9.34;56.94;98118.44;2168392;82;21986;-78
2021/03/15 09:13:07;;;;;;;17.40;12.90;;;;;;;9.26;56.58;98117.09;2170144;82;21532;-77
2021/03/15 09:16:08;;;;;;;18.40;13.00;;;;;;;9.32;55.11;98121.47;2162421;82;21297;-77
2021/03/15 09:19:09;;;;;;;25.97;14.97;;;;;;;9.24;55.16;98114.91;2157331;82;21261;-78
2021/03/15 09:22:10;;;;;;;17.13;12.33;;;;;;;9.20;55.61;98106.65;2156968;82;21431;-77
2021/03/15 09:25:11;;;;;;;21.87;12.13;;;;;;;9.40;55.18;98110.22;2156785;82;21269;-77
2021/03/15 09:28:12;;;;;;;17.37;11.63;;;;;;;10.54;60.21;98107.12;2156622;82;21569;-76
2021/03/15 09:31:13;;;;;;;17.48;10.32;;;;;;;13.03;55.20;98092.08;2156689;82;21325;-77
2021/03/15 09:34:14;;;;;;;14.50;9.75;;;;;;;14.83;53.11;98088.45;2155742;82;21244;-77
2021/03/15 09:37:15;;;;;;;11.22;9.60;;;;;;;15.27;43.47;98094.22;2156654;82;21387;-77
2021/03/15 09:40:16;;;;;;;16.93;10.03;;;;;;;15.18;42.57;98092.21;2156900;82;21249;-76
2021/03/15 09:43:18;;;;;;;12.55;8.98;;;;;;;15.29;44.60;98093.74;2156832;82;22001;-77
2021/03/15 09:46:19;;;;;;;11.28;9.20;;;;;;;15.29;41.57;98087.17;2156991;81;22058;-76
2021/03/15 09:49:20;;;;;;;20.52;10.53;;;;;;;13.36;41.78;98088.71;2156259;82;21283;-77
2021/03/15 09:52:21;;;;;;;19.65;12.55;;;;;;;12.09;43.82;98083.62;2157635;82;21155;-77
2021/03/15 09:55:22;;;;;;;27.48;13.75;;;;;;;11.16;45.39;98086.59;2157779;82;21253;-77
2021/03/15 09:58:23;;;;;;;18.00;12.43;;;;;;;10.51;47.16;98087.11;2157777;82;21476;-76
2021/03/15 10:01:27;;;;;;;21.00;14.75;;;;;;;9.97;48.12;98087.86;2156638;82;21134;-77
2021/03/15 10:04:27;;;;;;;21.68;14.87;;;;;;;9.70;48.57;98084.75;2157723;82;22084;-77
2021/03/15 10:07:29;;;;;;;18.85;13.28;;;;;;;9.54;49.46;98090.34;2156028;81;21329;-77
2021/03/15 10:10:30;;;;;;;23.27;15.00;;;;;;;9.54;49.33;98085.56;2147248;82;21277;-78
2021/03/15 10:13:31;;;;;;;20.07;14.67;;;;;;;9.40;49.71;98083.30;2148251;82;21314;-78
2021/03/15 10:16:32;;;;;;;19.05;13.62;;;;;;;9.45;50.18;98085.06;2149699;83;21309;-79
2021/03/15 10:19:33;;;;;;;18.75;13.70;;;;;;;9.64;50.07;98079.95;2148230;83;21138;-78
2021/03/15 10:22:34;;;;;;;16.30;13.83;;;;;;;10.05;49.41;98073.53;2148922;83;21254;-78
2021/03/15 10:25:35;;;;;;;18.57;13.45;;;;;;;10.36;48.07;98074.47;2147644;83;21103;-79
2021/03/15 10:28:36;;;;;;;23.83;16.90;;;;;;;10.20;48.26;98074.45;2146978;83;21273;-77
2021/03/15 10:31:37;;;;;;;28.57;18.40;;;;;;;9.95;48.11;98073.08;2149158;82;21321;-78
2021/03/15 10:34:38;;;;;;;18.42;14.60;;;;;;;9.90;49.05;98071.77;2148242;83;21145;-78
2021/03/15 10:37:40;;;;;;;16.67;14.47;;;;;;;10.00;47.41;98076.57;2147029;82;21504;-77
2021/03/15 10:40:41;;;;;;;17.70;14.03;;;;;;;9.89;48.79;98072.64;2147106;83;21546;-78
2021/03/15 10:43:42;;;;;;;15.00;13.03;;;;;;;9.89;49.05;98070.03;2147935;83;21249;-78
2021/03/15 10:46:43;;;;;;;15.37;12.37;;;;;;;9.71;48.83;98072.16;2147351;83;21163;-79
2021/03/15 10:49:44;;;;;;;15.63;13.63;;;;;;;9.49;48.52;98076.83;2148351;83;21561;-78
2021/03/15 10:52:45;;;;;;;15.30;12.87;;;;;;;9.35;48.67;98072.87;2148533;83;21305;-78
2021/03/15 10:55:47;;;;;;;16.93;13.53;;;;;;;9.18;48.64;98075.82;2149426;83;21161;-78
2021/03/15 10:58:48;;;;;;;16.20;12.47;;;;;;;9.06;49.57;98067.95;2148433;83;21278;-79
2021/03/15 11:01:49;;;;;;;13.80;11.70;;;;;;;9.04;49.87;98069.24;2147464;83;21123;-79
2021/03/15 11:04:51;;;;;;;12.07;9.20;;;;;;;9.09;49.51;98062.76;2147239;83;22152;-78
2021/03/15 11:07:52;;;;;;;21.87;9.53;;;;;;;9.18;47.62;98061.50;2148117;82;21293;-79
2021/03/15 11:10:53;;;;;;;16.70;10.53;;;;;;;9.38;47.68;98058.98;2152795;82;21138;-79
2021/03/15 11:13:54;;;;;;;12.77;10.43;;;;;;;9.64;47.68;98049.55;2150267;82;21414;-78
2021/03/15 11:16:56;;;;;;;19.10;12.03;;;;;;;9.92;46.75;98046.58;2164989;82;21321;-77
2021/03/15 11:19:57;;;;;;;13.43;11.30;;;;;;;10.06;46.74;98045.29;2157087;82;21265;-77
2021/03/15 11:22:59;;;;;;;31.00;11.60;;;;;;;10.15;46.67;98040.95;2157801;82;21253;-78
2021/03/15 11:26:00;;;;;;;1226.77;110.83;;;;;;;10.19;47.03;98039.22;2157943;82;21346;-78
2021/03/15 11:29:01;;;;;;;22.93;11.37;;;;;;;10.19;46.05;98037.48;2157100;82;21146;-78
2021/03/15 11:32:02;;;;;;;10.70;7.67;;;;;;;10.18;45.46;98032.27;2158240;82;21309;-79
2021/03/15 11:35:03;;;;;;;9.50;7.77;;;;;;;10.09;44.32;98044.86;2157209;81;21126;-77
2021/03/15 11:38:04;;;;;;;16.17;8.70;;;;;;;9.94;46.09;98030.94;2157502;82;21150;-78
2021/03/15 11:41:05;;;;;;;15.10;9.77;;;;;;;9.95;45.47;98021.81;2157522;82;21144;-78
2021/03/15 11:44:06;;;;;;;15.27;11.03;;;;;;;9.83;45.66;98027.88;2156936;82;21285;-78
2021/03/15 11:47:07;;;;;;;318.77;25.93;;;;;;;9.78;46.03;98025.70;2156669;82;21158;-77
2021/03/15 11:50:08;;;;;;;14.93;9.20;;;;;;;9.72;46.14;98023.08;2157900;82;21126;-78
2021/03/15 11:53:09;;;;;;;12.00;9.30;;;;;;;9.61;46.29;98025.23;2156094;82;21296;-78
2021/03/15 11:56:10;;;;;;;14.17;10.20;;;;;;;9.44;47.39;98022.54;2156307;82;21281;-77
2021/03/15 11:59:11;;;;;;;13.17;9.10;;;;;;;9.24;47.04;98027.24;2156410;82;21256;-78
2021/03/15 12:02:12;;;;;;;33.93;10.90;;;;;;;9.12;47.37;98027.63;2156505;82;21158;-79
2021/03/15 12:05:13;;;;;;;16.37;10.57;;;;;;;9.01;47.80;98019.77;2157760;82;21146;-78
2021/03/15 12:08:15;;;;;;;148.07;16.43;;;;;;;8.99;47.97;98025.83;2159729;82;21289;-78
2021/03/15 12:11:17;;;;;;;20.07;10.43;;;;;;;9.02;48.03;98018.91;2170395;82;21364;-78
2021/03/15 12:14:18;;;;;;;13.03;10.93;;;;;;;9.09;48.31;98014.59;2170435;82;21114;-78
2021/03/15 12:17:19;;;;;;;13.20;9.70;;;;;;;9.08;48.24;98010.25;2158590;82;21143;-77
2021/03/15 12:20:20;;;;;;;11.53;9.60;;;;;;;9.11;48.11;98007.23;2156832;82;21135;-78
2021/03/15 12:23:21;;;;;;;14.00;9.80;;;;;;;9.09;48.28;98001.15;2155867;82;21265;-77
2021/03/15 12:26:22;;;;;;;14.53;9.53;;;;;;;9.23;48.20;97992.95;2156787;82;21155;-78
2021/03/15 12:29:23;;;;;;;14.43;9.57;;;;;;;9.25;47.72;97994.27;2155990;82;21607;-77
2021/03/15 12:32:24;;;;;;;12.57;9.27;;;;;;;9.32;47.75;97990.81;2156840;82;21162;-78
2021/03/15 12:35:25;;;;;;;12.37;9.40;;;;;;;9.34;47.56;97986.48;2156616;82;21273;-79
2021/03/15 12:38:27;;;;;;;11.93;8.97;;;;;;;9.49;47.34;97987.83;2158504;81;21095;-79
2021/03/15 12:41:28;;;;;;;15.03;9.80;;;;;;;9.57;47.56;97983.53;2158961;82;21170;-79
2021/03/15 12:44:29;;;;;;;17.10;10.03;;;;;;;9.64;47.26;97975.73;2158132;82;21131;-79
2021/03/15 12:47:31;;;;;;;14.10;10.20;;;;;;;9.72;46.71;97981.38;2155677;82;21875;-77
2021/03/15 12:50:32;;;;;;;27.53;12.13;;;;;;;9.72;46.34;97981.38;2155752;82;21153;-78
2021/03/15 12:53:33;;;;;;;15.83;9.63;;;;;;;9.81;46.88;97980.53;2155896;82;21198;-78
2021/03/15 12:56:34;;;;;;;12.87;10.87;;;;;;;10.00;46.76;97987.49;2155247;82;21280;-79
2021/03/15 12:59:36;;;;;;;16.00;9.77;;;;;;;10.09;45.63;97986.19;2157062;82;21256;-79
2021/03/15 13:02:37;;;;;;;9.93;8.87;;;;;;;9.93;45.90;97987.05;2156603;82;21131;-78
2021/03/15 13:05:38;;;;;;;13.07;10.10;;;;;;;9.82;45.86;97987.48;2154050;82;21264;-76
2021/03/15 13:08:41;;;;;;;15.10;9.30;;;;;;;9.80;46.46;97994.42;2150510;81;21276;-77
2021/03/15 13:11:42;;;;;;;19.07;11.40;;;;;;;10.14;46.56;97988.80;2144426;83;21301;-78
2021/03/15 13:14:43;;;;;;;14.28;10.43;;;;;;;10.53;45.93;97986.66;2145072;82;22098;-78
2021/03/15 13:17:49;;;;;;;14.40;10.20;;;;;;;10.96;45.83;97988.72;2145809;83;21991;-79
2021/03/15 13:20:47;;;;;;;13.50;9.43;;;;;;;11.12;44.53;97985.61;2147809;83;21456;-78
2021/03/15 13:23:49;;;;;;;12.07;8.78;;;;;;;10.68;44.76;97984.02;2146489;83;21313;-78
2021/03/15 13:26:50;;;;;;;12.60;9.25;;;;;;;10.47;45.10;97977.09;2146935;83;21293;-78
2021/03/15 13:29:51;;;;;;;10.85;8.93;;;;;;;10.29;45.27;97978.83;2147147;82;21519;-78
2021/03/15 13:32:52;;;;;;;11.23;9.27;;;;;;;10.22;45.48;97979.27;2146492;83;21166;-80
2021/03/15 13:35:53;;;;;;;39.20;21.23;;;;;;;10.19;45.66;97981.84;2145932;83;22429;-78
2021/03/15 13:38:55;;;;;;;14.58;9.50;;;;;;;10.26;45.70;97984.05;2146933;83;21265;-78
2021/03/15 13:41:56;;;;;;;11.77;8.80;;;;;;;10.31;45.20;97977.08;2148062;83;22190;-78
2021/03/15 13:44:58;;;;;;;11.83;7.55;;;;;;;10.23;45.60;97981.44;2147821;82;21096;-78
2021/03/15 13:47:59;;;;;;;14.90;7.53;;;;;;;10.13;45.13;97980.54;2148082;82;21568;-79
2021/03/15 13:51:01;;;;;;;11.83;8.00;;;;;;;10.07;45.16;97976.63;2147162;83;21265;-80
2021/03/15 13:54:03;;;;;;;8.17;5.77;;;;;;;9.88;44.42;97979.66;2147629;83;21388;-80
2021/03/15 13:57:06;;;;;;;8.53;6.63;;;;;;;9.64;44.06;97982.23;2148528;83;21301;-79
2021/03/15 14:00:09;;;;;;;9.77;7.60;;;;;;;9.54;44.60;97985.27;2148225;83;21416;-79
2021/03/15 14:03:10;;;;;;;10.03;7.30;;;;;;;9.52;44.99;97980.02;2145204;82;21147;-79
2021/03/15 14:06:11;;;;;;;7.80;6.87;;;;;;;9.53;43.75;97987.39;2143754;83;21278;-80